sensor_id;sensor_type;location;lat;lon;timestamp;P1;durP1;ratioP1;P2;durP2;ratioP2
26838;SDS011;40088;51.214;6.786;2023-03-16T00:09:49;5.45;;;3.75;;
26838;SDS011;40088;51.214;6.786;2023-03-16T00:19:50;4.20;;;3.10;;
26838;SDS011;40088;51.214;6.786;2023-03-16T00:29:53;4.40;;;3.42;;
26838;SDS011;40088;51.214;6.786;2023-03-16T00:39:57;5.47;;;3.80;;
26838;SDS011;40088;51.214;6.786;2023-03-16T00:49:58;4.13;;;3.42;;
26838;SDS011;40088;51.214;6.786;2023-03-16T00:59:59;4.10;;;3.13;;
26838;SDS011;40088;51.214;6.786;2023-03-16T01:10:09;5.70;;;3.47;;
26838;SDS011;40088;51.214;6.786;2023-03-16T01:20:10;4.22;;;3.05;;
26838;SDS011;40088;51.214;6.786;2023-03-16T01:30:11;4.05;;;3.20;;
26838;SDS011;40088;51.214;6.786;2023-03-16T01:40:12;4.85;;;3.38;;
26838;SDS011;40088;51.214;6.786;2023-03-16T01:50:13;3.80;;;3.43;;
26838;SDS011;40088;51.214;6.786;2023-03-16T02:00:14;4.15;;;3.15;;
26838;SDS011;40088;51.214;6.786;2023-03-16T02:10:22;4.22;;;3.47;;
26838;SDS011;40088;51.214;6.786;2023-03-16T02:30:36;3.97;;;2.67;;
26838;SDS011;40088;51.214;6.786;2023-03-16T02:40:36;6.57;;;3.15;;
26838;SDS011;40088;51.214;6.786;2023-03-16T02:50:41;4.00;;;2.75;;
26838;SDS011;40088;51.214;6.786;2023-03-16T03:00:45;3.22;;;2.72;;
26838;SDS011;40088;51.214;6.786;2023-03-16T03:10:46;3.25;;;2.60;;
26838;SDS011;40088;51.214;6.786;2023-03-16T03:20:46;4.20;;;3.20;;
26838;SDS011;40088;51.214;6.786;2023-03-16T03:30:46;4.07;;;2.97;;
26838;SDS011;40088;51.214;6.786;2023-03-16T03:40:50;3.65;;;2.67;;
26838;SDS011;40088;51.214;6.786;2023-03-16T03:50:52;4.00;;;3.15;;
26838;SDS011;40088;51.214;6.786;2023-03-16T04:00:52;3.57;;;2.70;;
26838;SDS011;40088;51.214;6.786;2023-03-16T04:10:52;3.35;;;2.60;;
26838;SDS011;40088;51.214;6.786;2023-03-16T04:20:53;4.07;;;3.00;;
26838;SDS011;40088;51.214;6.786;2023-03-16T04:30:53;3.95;;;2.90;;
26838;SDS011;40088;51.214;6.786;2023-03-16T04:40:54;3.35;;;2.70;;
26838;SDS011;40088;51.214;6.786;2023-03-16T04:50:54;4.18;;;2.80;;
26838;SDS011;40088;51.214;6.786;2023-03-16T05:00:55;3.30;;;2.50;;
26838;SDS011;40088;51.214;6.786;2023-03-16T05:10:56;3.67;;;2.55;;
26838;SDS011;40088;51.214;6.786;2023-03-16T05:20:57;3.58;;;2.63;;
26838;SDS011;40088;51.214;6.786;2023-03-16T05:30:57;3.08;;;2.60;;
26838;SDS011;40088;51.214;6.786;2023-03-16T05:40:57;3.35;;;2.75;;
26838;SDS011;40088;51.214;6.786;2023-03-16T05:51:00;2.58;;;2.15;;
26838;SDS011;40088;51.214;6.786;2023-03-16T06:01:04;3.88;;;2.70;;
26838;SDS011;40088;51.214;6.786;2023-03-16T06:11:06;4.38;;;2.97;;
26838;SDS011;40088;51.214;6.786;2023-03-16T06:21:06;2.65;;;2.38;;
26838;SDS011;40088;51.214;6.786;2023-03-16T06:31:07;4.25;;;2.90;;
26838;SDS011;40088;51.214;6.786;2023-03-16T06:41:07;3.05;;;2.40;;
26838;SDS011;40088;51.214;6.786;2023-03-16T06:51:07;2.63;;;2.42;;
26838;SDS011;40088;51.214;6.786;2023-03-16T07:01:08;2.83;;;2.47;;
26838;SDS011;40088;51.214;6.786;2023-03-16T07:11:08;3.90;;;2.30;;
26838;SDS011;40088;51.214;6.786;2023-03-16T07:21:09;3.67;;;2.92;;
26838;SDS011;40088;51.214;6.786;2023-03-16T07:31:10;3.67;;;2.80;;
26838;SDS011;40088;51.214;6.786;2023-03-16T07:41:10;3.08;;;2.55;;
26838;SDS011;40088;51.214;6.786;2023-03-16T07:51:11;2.75;;;2.47;;
26838;SDS011;40088;51.214;6.786;2023-03-16T08:01:12;2.53;;;2.33;;
26838;SDS011;40088;51.214;6.786;2023-03-16T08:11:12;2.95;;;2.40;;
26838;SDS011;40088;51.214;6.786;2023-03-16T08:21:13;2.92;;;2.63;;
26838;SDS011;40088;51.214;6.786;2023-03-16T08:31:13;2.40;;;2.13;;
26838;SDS011;40088;51.214;6.786;2023-03-16T08:41:14;3.85;;;2.20;;
26838;SDS011;40088;51.214;6.786;2023-03-16T08:51:16;2.58;;;2.13;;
26838;SDS011;40088;51.214;6.786;2023-03-16T09:01:17;3.35;;;2.45;;
26838;SDS011;40088;51.214;6.786;2023-03-16T09:11:18;3.03;;;2.53;;
26838;SDS011;40088;51.214;6.786;2023-03-16T09:21:19;3.65;;;2.28;;
26838;SDS011;40088;51.214;6.786;2023-03-16T09:31:19;3.15;;;2.38;;
26838;SDS011;40088;51.214;6.786;2023-03-16T09:41:30;5.30;;;2.60;;
26838;SDS011;40088;51.214;6.786;2023-03-16T09:51:47;2.80;;;2.50;;
26838;SDS011;40088;51.214;6.786;2023-03-16T10:12:05;2.55;;;2.25;;
26838;SDS011;40088;51.214;6.786;2023-03-16T10:32:28;2.33;;;2.00;;
26838;SDS011;40088;51.214;6.786;2023-03-16T10:42:30;3.63;;;2.47;;
26838;SDS011;40088;51.214;6.786;2023-03-16T10:52:36;2.70;;;2.10;;
26838;SDS011;40088;51.214;6.786;2023-03-16T11:02:39;2.05;;;1.85;;
26838;SDS011;40088;51.214;6.786;2023-03-16T11:12:39;2.80;;;2.15;;
26838;SDS011;40088;51.214;6.786;2023-03-16T11:22:40;3.63;;;2.03;;
26838;SDS011;40088;51.214;6.786;2023-03-16T11:32:46;2.42;;;1.80;;
26838;SDS011;40088;51.214;6.786;2023-03-16T11:43:04;4.82;;;1.80;;
26838;SDS011;40088;51.214;6.786;2023-03-16T12:03:43;3.33;;;2.17;;
26838;SDS011;40088;51.214;6.786;2023-03-16T12:14:13;4.65;;;2.42;;
26838;SDS011;40088;51.214;6.786;2023-03-16T12:24:23;5.00;;;1.97;;
26838;SDS011;40088;51.214;6.786;2023-03-16T12:34:31;5.40;;;2.25;;
26838;SDS011;40088;51.214;6.786;2023-03-16T12:44:52;3.75;;;2.15;;
26838;SDS011;40088;51.214;6.786;2023-03-16T12:55:38;3.15;;;1.85;;
26838;SDS011;40088;51.214;6.786;2023-03-16T13:05:27;1.98;;;1.70;;
26838;SDS011;40088;51.214;6.786;2023-03-16T13:15:31;4.07;;;1.98;;
26838;SDS011;40088;51.214;6.786;2023-03-16T13:35:31;3.78;;;1.90;;
26838;SDS011;40088;51.214;6.786;2023-03-16T13:45:33;3.10;;;1.70;;
26838;SDS011;40088;51.214;6.786;2023-03-16T13:55:36;2.53;;;1.85;;
26838;SDS011;40088;51.214;6.786;2023-03-16T14:05:37;1.60;;;1.50;;
26838;SDS011;40088;51.214;6.786;2023-03-16T14:15:38;3.40;;;1.77;;
26838;SDS011;40088;51.214;6.786;2023-03-16T14:25:39;1.67;;;1.45;;
26838;SDS011;40088;51.214;6.786;2023-03-16T14:35:43;2.33;;;1.48;;
26838;SDS011;40088;51.214;6.786;2023-03-16T14:45:43;1.58;;;1.48;;
26838;SDS011;40088;51.214;6.786;2023-03-16T14:55:44;2.97;;;1.45;;
26838;SDS011;40088;51.214;6.786;2023-03-16T15:05:45;2.97;;;1.52;;
26838;SDS011;40088;51.214;6.786;2023-03-16T15:15:47;1.47;;;1.23;;
26838;SDS011;40088;51.214;6.786;2023-03-16T15:25:48;1.92;;;1.52;;
26838;SDS011;40088;51.214;6.786;2023-03-16T15:35:51;1.30;;;1.13;;
26838;SDS011;40088;51.214;6.786;2023-03-16T15:45:55;1.38;;;1.23;;
26838;SDS011;40088;51.214;6.786;2023-03-16T15:56:00;1.77;;;1.25;;
26838;SDS011;40088;51.214;6.786;2023-03-16T16:06:07;1.60;;;1.50;;
26838;SDS011;40088;51.214;6.786;2023-03-16T16:16:14;1.45;;;1.33;;
26838;SDS011;40088;51.214;6.786;2023-03-16T16:26:27;1.73;;;1.40;;
26838;SDS011;40088;51.214;6.786;2023-03-16T16:36:30;1.30;;;1.20;;
26838;SDS011;40088;51.214;6.786;2023-03-16T16:46:31;2.22;;;1.20;;
26838;SDS011;40088;51.214;6.786;2023-03-16T16:56:36;1.88;;;1.40;;
26838;SDS011;40088;51.214;6.786;2023-03-16T17:06:37;1.42;;;1.30;;
26838;SDS011;40088;51.214;6.786;2023-03-16T17:16:37;1.50;;;1.33;;
26838;SDS011;40088;51.214;6.786;2023-03-16T17:26:39;1.90;;;1.42;;
26838;SDS011;40088;51.214;6.786;2023-03-16T17:36:43;1.60;;;1.20;;
26838;SDS011;40088;51.214;6.786;2023-03-16T17:46:45;1.90;;;1.65;;
26838;SDS011;40088;51.214;6.786;2023-03-16T17:56:45;2.08;;;1.52;;
26838;SDS011;40088;51.214;6.786;2023-03-16T18:06:48;1.50;;;1.40;;
26838;SDS011;40088;51.214;6.786;2023-03-16T18:16:50;2.40;;;1.42;;
26838;SDS011;40088;51.214;6.786;2023-03-16T18:26:51;2.13;;;1.50;;
26838;SDS011;40088;51.214;6.786;2023-03-16T18:36:52;2.03;;;1.63;;
26838;SDS011;40088;51.214;6.786;2023-03-16T18:46:56;2.58;;;1.65;;
26838;SDS011;40088;51.214;6.786;2023-03-16T18:57:00;2.67;;;1.80;;
26838;SDS011;40088;51.214;6.786;2023-03-16T19:07:03;1.93;;;1.60;;
26838;SDS011;40088;51.214;6.786;2023-03-16T19:17:05;2.15;;;1.75;;
26838;SDS011;40088;51.214;6.786;2023-03-16T19:27:10;2.63;;;2.00;;
26838;SDS011;40088;51.214;6.786;2023-03-16T19:37:25;2.30;;;2.00;;
26838;SDS011;40088;51.214;6.786;2023-03-16T19:47:29;3.70;;;2.83;;
26838;SDS011;40088;51.214;6.786;2023-03-16T19:57:31;3.30;;;2.53;;
26838;SDS011;40088;51.214;6.786;2023-03-16T20:07:32;3.80;;;2.63;;
26838;SDS011;40088;51.214;6.786;2023-03-16T20:17:36;5.18;;;3.25;;
26838;SDS011;40088;51.214;6.786;2023-03-16T20:27:37;4.53;;;2.58;;
26838;SDS011;40088;51.214;6.786;2023-03-16T20:37:38;6.93;;;2.30;;
26838;SDS011;40088;51.214;6.786;2023-03-16T20:47:38;6.57;;;2.60;;
26838;SDS011;40088;51.214;6.786;2023-03-16T20:57:38;6.97;;;2.92;;
26838;SDS011;40088;51.214;6.786;2023-03-16T21:17:42;6.15;;;2.90;;
26838;SDS011;40088;51.214;6.786;2023-03-16T21:27:42;3.97;;;3.08;;
26838;SDS011;40088;51.214;6.786;2023-03-16T21:37:43;3.42;;;2.60;;
26838;SDS011;40088;51.214;6.786;2023-03-16T21:47:44;3.47;;;2.60;;
26838;SDS011;40088;51.214;6.786;2023-03-16T21:57:45;3.13;;;2.50;;
26838;SDS011;40088;51.214;6.786;2023-03-16T22:07:46;2.67;;;2.25;;
26838;SDS011;40088;51.214;6.786;2023-03-16T22:17:46;2.67;;;2.20;;
26838;SDS011;40088;51.214;6.786;2023-03-16T22:27:47;5.27;;;2.10;;
26838;SDS011;40088;51.214;6.786;2023-03-16T22:37:47;2.65;;;2.10;;
26838;SDS011;40088;51.214;6.786;2023-03-16T22:47:48;3.35;;;2.40;;
26838;SDS011;40088;51.214;6.786;2023-03-16T22:57:54;3.22;;;2.20;;
26838;SDS011;40088;51.214;6.786;2023-03-16T23:08:04;2.80;;;2.03;;
26838;SDS011;40088;51.214;6.786;2023-03-16T23:18:18;3.20;;;2.10;;
26838;SDS011;40088;51.214;6.786;2023-03-16T23:28:20;3.75;;;2.25;;
26838;SDS011;40088;51.214;6.786;2023-03-16T23:38:23;3.00;;;2.25;;
26838;SDS011;40088;51.214;6.786;2023-03-16T23:48:23;2.33;;;1.80;;
26838;SDS011;40088;51.214;6.786;2023-03-16T23:58:23;3.25;;;2.50;;
